sensor_id;sensor_type;location;lat;lon;timestamp;pressure;altitude;pressure_sealevel;temperature;humidity
74181;BME280;62544;50.826;14.354;2023-02-11T00:02:40;100864.95;;;-1.91;86.94
74181;BME280;62544;50.826;14.354;2023-02-11T00:06:56;100861.81;;;-1.97;88.25
74181;BME280;62544;50.826;14.354;2023-02-11T00:11:13;100859.82;;;-2.02;88.07
74181;BME280;62544;50.826;14.354;2023-02-11T00:15:28;100857.75;;;-2.06;88.37
74181;BME280;62544;50.826;14.354;2023-02-11T00:19:47;100854.61;;;-2.08;88.98
74181;BME280;62544;50.826;14.354;2023-02-11T00:24:00;100848.42;;;-2.12;88.63
74181;BME280;62544;50.826;14.354;2023-02-11T00:28:16;100842.74;;;-2.16;89.37
74181;BME280;62544;50.826;14.354;2023-02-11T00:32:32;100838.31;;;-2.18;89.04
74181;BME280;62544;50.826;14.354;2023-02-11T00:36:48;100835.71;;;-2.20;88.97
74181;BME280;62544;50.826;14.354;2023-02-11T00:41:04;100831.25;;;-2.22;88.56
74181;BME280;62544;50.826;14.354;2023-02-11T00:45:20;100827.66;;;-2.27;88.47
74181;BME280;62544;50.826;14.354;2023-02-11T00:49:36;100824.00;;;-2.31;89.08
74181;BME280;62544;50.826;14.354;2023-02-11T00:53:52;100820.89;;;-2.33;89.32
74181;BME280;62544;50.826;14.354;2023-02-11T00:58:08;100816.99;;;-2.32;88.80
74181;BME280;62544;50.826;14.354;2023-02-11T01:02:24;100809.66;;;-2.30;88.54
74181;BME280;62544;50.826;14.354;2023-02-11T01:06:40;100803.00;;;-2.28;87.78
74181;BME280;62544;50.826;14.354;2023-02-11T01:10:57;100798.47;;;-2.27;87.24
74181;BME280;62544;50.826;14.354;2023-02-11T01:15:13;100797.28;;;-2.24;87.61
74181;BME280;62544;50.826;14.354;2023-02-11T01:19:28;100795.62;;;-2.23;87.23
74181;BME280;62544;50.826;14.354;2023-02-11T01:23:44;100791.22;;;-2.23;87.93
74181;BME280;62544;50.826;14.354;2023-02-11T01:28:03;100785.86;;;-2.25;88.37
74181;BME280;62544;50.826;14.354;2023-02-11T01:32:16;100776.58;;;-2.25;87.85
74181;BME280;62544;50.826;14.354;2023-02-11T01:36:32;100766.86;;;-2.24;88.11
74181;BME280;62544;50.826;14.354;2023-02-11T01:40:52;100759.17;;;-2.21;87.86
74181;BME280;62544;50.826;14.354;2023-02-11T01:49:21;100749.35;;;-2.13;87.38
74181;BME280;62544;50.826;14.354;2023-02-11T01:53:36;100747.20;;;-2.09;87.39
74181;BME280;62544;50.826;14.354;2023-02-11T01:57:53;100746.47;;;-2.06;87.08
74181;BME280;62544;50.826;14.354;2023-02-11T02:02:09;100746.56;;;-2.03;87.38
74181;BME280;62544;50.826;14.354;2023-02-11T02:06:34;100748.66;;;-2.00;86.96
74181;BME280;62544;50.826;14.354;2023-02-11T02:10:41;100748.12;;;-1.98;86.81
74181;BME280;62544;50.826;14.354;2023-02-11T02:32:21;100723.92;;;-2.08;88.00
74181;BME280;62544;50.826;14.354;2023-02-11T02:36:23;100718.87;;;-2.08;87.54
74181;BME280;62544;50.826;14.354;2023-02-11T02:40:34;100713.28;;;-2.07;87.46
74181;BME280;62544;50.826;14.354;2023-02-11T02:44:49;100708.37;;;-2.07;87.50
74181;BME280;62544;50.826;14.354;2023-02-11T02:49:05;100704.52;;;-2.09;87.86
74181;BME280;62544;50.826;14.354;2023-02-11T02:53:25;100700.73;;;-2.09;87.94
74181;BME280;62544;50.826;14.354;2023-02-11T03:01:57;100696.56;;;-2.09;88.67
74181;BME280;62544;50.826;14.354;2023-02-11T03:06:10;100693.96;;;-2.04;87.65
74181;BME280;62544;50.826;14.354;2023-02-11T03:10:28;100690.83;;;-1.95;86.85
74181;BME280;62544;50.826;14.354;2023-02-11T03:14:40;100687.84;;;-1.86;86.71
74181;BME280;62544;50.826;14.354;2023-02-11T03:19:01;100683.36;;;-1.75;85.87
74181;BME280;62544;50.826;14.354;2023-02-11T03:23:28;100677.48;;;-1.66;85.97
74181;BME280;62544;50.826;14.354;2023-02-11T03:36:02;100661.47;;;-1.52;86.21
74181;BME280;62544;50.826;14.354;2023-02-11T03:40:20;100657.03;;;-1.51;86.79
74181;BME280;62544;50.826;14.354;2023-02-11T03:44:33;100651.37;;;-1.54;87.47
74181;BME280;62544;50.826;14.354;2023-02-11T03:48:51;100647.16;;;-1.51;86.95
74181;BME280;62544;50.826;14.354;2023-02-11T03:53:04;100639.94;;;-1.47;86.49
74181;BME280;62544;50.826;14.354;2023-02-11T03:57:20;100633.98;;;-1.39;85.84
74181;BME280;62544;50.826;14.354;2023-02-11T04:01:36;100628.94;;;-1.35;86.82
74181;BME280;62544;50.826;14.354;2023-02-11T04:05:52;100621.57;;;-1.31;86.18
74181;BME280;62544;50.826;14.354;2023-02-11T04:10:08;100615.41;;;-1.24;85.92
74181;BME280;62544;50.826;14.354;2023-02-11T04:14:24;100611.00;;;-1.24;86.83
74181;BME280;62544;50.826;14.354;2023-02-11T04:18:40;100605.00;;;-1.20;86.02
74181;BME280;62544;50.826;14.354;2023-02-11T04:22:56;100597.66;;;-1.17;86.15
74181;BME280;62544;50.826;14.354;2023-02-11T04:27:12;100590.60;;;-1.12;85.67
74181;BME280;62544;50.826;14.354;2023-02-11T04:31:28;100580.47;;;-1.13;86.40
74181;BME280;62544;50.826;14.354;2023-02-11T04:35:44;100576.05;;;-1.08;85.47
74181;BME280;62544;50.826;14.354;2023-02-11T04:40:00;100573.94;;;-1.02;85.20
74181;BME280;62544;50.826;14.354;2023-02-11T04:44:16;100571.33;;;-0.94;84.92
74181;BME280;62544;50.826;14.354;2023-02-11T04:48:32;100572.42;;;-0.84;84.34
74181;BME280;62544;50.826;14.354;2023-02-11T04:52:48;100572.26;;;-0.73;83.75
74181;BME280;62544;50.826;14.354;2023-02-11T04:57:04;100574.83;;;-0.63;83.35
74181;BME280;62544;50.826;14.354;2023-02-11T05:01:20;100577.95;;;-0.52;83.06
74181;BME280;62544;50.826;14.354;2023-02-11T05:05:39;100582.34;;;-0.42;82.91
74181;BME280;62544;50.826;14.354;2023-02-11T05:09:52;100585.00;;;-0.32;81.79
74181;BME280;62544;50.826;14.354;2023-02-11T05:14:08;100585.41;;;-0.27;82.50
74181;BME280;62544;50.826;14.354;2023-02-11T05:18:24;100585.05;;;-0.24;82.49
74181;BME280;62544;50.826;14.354;2023-02-11T05:22:40;100586.14;;;-0.20;82.69
74181;BME280;62544;50.826;14.354;2023-02-11T05:26:56;100584.93;;;-0.20;83.03
74181;BME280;62544;50.826;14.354;2023-02-11T05:31:12;100584.19;;;-0.20;83.41
74181;BME280;62544;50.826;14.354;2023-02-11T05:35:28;100581.23;;;-0.21;83.74
74181;BME280;62544;50.826;14.354;2023-02-11T05:39:44;100578.81;;;-0.25;84.45
74181;BME280;62544;50.826;14.354;2023-02-11T05:44:00;100576.45;;;-0.34;86.10
74181;BME280;62544;50.826;14.354;2023-02-11T05:48:16;100573.39;;;-0.39;86.00
74181;BME280;62544;50.826;14.354;2023-02-11T05:52:32;100567.80;;;-0.42;85.91
74181;BME280;62544;50.826;14.354;2023-02-11T05:56:48;100563.01;;;-0.43;85.76
74181;BME280;62544;50.826;14.354;2023-02-11T06:01:04;100559.25;;;-0.45;85.70
74181;BME280;62544;50.826;14.354;2023-02-11T06:05:20;100556.53;;;-0.40;85.14
74181;BME280;62544;50.826;14.354;2023-02-11T06:09:36;100554.72;;;-0.30;84.34
74181;BME280;62544;50.826;14.354;2023-02-11T06:13:52;100553.41;;;-0.20;83.88
74181;BME280;62544;50.826;14.354;2023-02-11T06:18:08;100551.40;;;-0.12;84.27
74181;BME280;62544;50.826;14.354;2023-02-11T06:22:24;100547.50;;;-0.03;83.74
74181;BME280;62544;50.826;14.354;2023-02-11T06:26:40;100543.16;;;0.01;84.21
74181;BME280;62544;50.826;14.354;2023-02-11T06:30:56;100541.15;;;0.04;83.98
74181;BME280;62544;50.826;14.354;2023-02-11T06:35:12;100541.26;;;0.10;83.43
74181;BME280;62544;50.826;14.354;2023-02-11T06:39:28;100542.54;;;0.16;83.44
74181;BME280;62544;50.826;14.354;2023-02-11T06:43:44;100543.63;;;0.19;83.80
74181;BME280;62544;50.826;14.354;2023-02-11T06:48:00;100543.25;;;0.26;83.42
74181;BME280;62544;50.826;14.354;2023-02-11T06:52:16;100542.28;;;0.33;83.17
74181;BME280;62544;50.826;14.354;2023-02-11T06:56:32;100542.50;;;0.40;82.86
74181;BME280;62544;50.826;14.354;2023-02-11T07:00:47;100543.87;;;0.49;82.27
74181;BME280;62544;50.826;14.354;2023-02-11T07:05:04;100544.94;;;0.57;82.45
74181;BME280;62544;50.826;14.354;2023-02-11T07:09:19;100545.56;;;0.66;82.37
74181;BME280;62544;50.826;14.354;2023-02-11T07:13:35;100546.23;;;0.74;82.24
74181;BME280;62544;50.826;14.354;2023-02-11T07:17:52;100546.42;;;0.82;81.32
74181;BME280;62544;50.826;14.354;2023-02-11T07:22:08;100544.76;;;0.86;81.93
74181;BME280;62544;50.826;14.354;2023-02-11T07:26:24;100543.18;;;0.90;81.91
74181;BME280;62544;50.826;14.354;2023-02-11T07:30:40;100540.58;;;0.88;82.72
74181;BME280;62544;50.826;14.354;2023-02-11T07:34:56;100538.44;;;0.87;82.94
74181;BME280;62544;50.826;14.354;2023-02-11T07:39:12;100535.00;;;0.90;82.65
74181;BME280;62544;50.826;14.354;2023-02-11T07:43:28;100536.01;;;0.95;82.39
74181;BME280;62544;50.826;14.354;2023-02-11T07:47:44;100539.39;;;1.05;81.52
74181;BME280;62544;50.826;14.354;2023-02-11T07:52:00;100544.82;;;1.13;81.07
74181;BME280;62544;50.826;14.354;2023-02-11T07:56:16;100549.81;;;1.20;81.57
74181;BME280;62544;50.826;14.354;2023-02-11T08:00:31;100551.78;;;1.29;81.02
74181;BME280;62544;50.826;14.354;2023-02-11T08:04:47;100550.02;;;1.40;80.81
74181;BME280;62544;50.826;14.354;2023-02-11T08:09:07;100549.14;;;1.51;79.75
74181;BME280;62544;50.826;14.354;2023-02-11T08:13:19;100547.15;;;1.59;79.73
74181;BME280;62544;50.826;14.354;2023-02-11T08:17:36;100545.34;;;1.68;79.64
74181;BME280;62544;50.826;14.354;2023-02-11T08:21:54;100545.36;;;1.77;80.20
74181;BME280;62544;50.826;14.354;2023-02-11T08:26:09;100545.37;;;1.85;80.13
74181;BME280;62544;50.826;14.354;2023-02-11T08:30:23;100546.64;;;1.90;80.64
74181;BME280;62544;50.826;14.354;2023-02-11T08:34:39;100546.24;;;1.91;81.14
74181;BME280;62544;50.826;14.354;2023-02-11T08:38:56;100545.43;;;1.94;80.64
74181;BME280;62544;50.826;14.354;2023-02-11T08:43:11;100546.80;;;1.98;81.07
74181;BME280;62544;50.826;14.354;2023-02-11T08:47:27;100545.06;;;2.06;80.51
74181;BME280;62544;50.826;14.354;2023-02-11T08:51:44;100545.00;;;2.11;80.67
74181;BME280;62544;50.826;14.354;2023-02-11T08:55:59;100544.56;;;2.18;81.12
74181;BME280;62544;50.826;14.354;2023-02-11T09:00:16;100545.15;;;2.25;81.20
74181;BME280;62544;50.826;14.354;2023-02-11T09:04:31;100543.41;;;2.32;81.54
74181;BME280;62544;50.826;14.354;2023-02-11T09:08:48;100543.23;;;2.40;81.47
74181;BME280;62544;50.826;14.354;2023-02-11T09:13:03;100546.37;;;2.45;81.46
74181;BME280;62544;50.826;14.354;2023-02-11T09:17:19;100550.62;;;2.50;81.61
74181;BME280;62544;50.826;14.354;2023-02-11T09:21:36;100553.38;;;2.57;82.01
74181;BME280;62544;50.826;14.354;2023-02-11T09:25:51;100556.66;;;2.63;81.62
74181;BME280;62544;50.826;14.354;2023-02-11T09:30:08;100559.70;;;2.66;82.40
74181;BME280;62544;50.826;14.354;2023-02-11T09:34:23;100560.58;;;2.71;82.39
74181;BME280;62544;50.826;14.354;2023-02-11T09:38:39;100561.11;;;2.75;82.01
74181;BME280;62544;50.826;14.354;2023-02-11T09:43:03;100559.34;;;2.77;83.10
74181;BME280;62544;50.826;14.354;2023-02-11T09:47:19;100558.87;;;2.79;83.68
74181;BME280;62544;50.826;14.354;2023-02-11T09:55:44;100558.91;;;2.82;84.41
74181;BME280;62544;50.826;14.354;2023-02-11T10:00:00;100557.17;;;2.84;84.43
74181;BME280;62544;50.826;14.354;2023-02-11T10:08:44;100551.09;;;2.84;84.91
74181;BME280;62544;50.826;14.354;2023-02-11T10:12:54;100548.49;;;2.82;85.47
74181;BME280;62544;50.826;14.354;2023-02-11T10:17:26;100546.66;;;2.83;85.37
74181;BME280;62544;50.826;14.354;2023-02-11T10:21:26;100543.63;;;2.87;85.13
74181;BME280;62544;50.826;14.354;2023-02-11T10:25:37;100540.59;;;2.92;85.08
74181;BME280;62544;50.826;14.354;2023-02-11T10:34:09;100533.67;;;2.99;85.33
74181;BME280;62544;50.826;14.354;2023-02-11T10:38:23;100530.44;;;3.04;85.36
74181;BME280;62544;50.826;14.354;2023-02-11T10:42:40;100526.60;;;3.15;84.93
74181;BME280;62544;50.826;14.354;2023-02-11T10:46:55;100523.22;;;3.20;84.67
74181;BME280;62544;50.826;14.354;2023-02-11T10:55:27;100520.94;;;3.31;84.92
74181;BME280;62544;50.826;14.354;2023-02-11T10:59:43;100518.58;;;3.41;84.52
74181;BME280;62544;50.826;14.354;2023-02-11T11:03:59;100515.58;;;3.45;84.10
74181;BME280;62544;50.826;14.354;2023-02-11T11:08:16;100514.34;;;3.45;85.23
74181;BME280;62544;50.826;14.354;2023-02-11T11:16:51;100506.84;;;3.67;83.70
74181;BME280;62544;50.826;14.354;2023-02-11T11:21:04;100506.67;;;3.76;82.87
74181;BME280;62544;50.826;14.354;2023-02-11T11:25:20;100506.84;;;3.77;83.97
74181;BME280;62544;50.826;14.354;2023-02-11T11:29:41;100505.80;;;3.72;85.35
74181;BME280;62544;50.826;14.354;2023-02-11T11:33:53;100502.29;;;3.73;85.65
74181;BME280;62544;50.826;14.354;2023-02-11T11:38:10;100497.39;;;3.83;84.58
74181;BME280;62544;50.826;14.354;2023-02-11T11:42:25;100495.37;;;3.96;82.35
74181;BME280;62544;50.826;14.354;2023-02-11T11:46:40;100497.06;;;3.95;84.66
74181;BME280;62544;50.826;14.354;2023-02-11T11:50:59;100496.80;;;3.94;84.64
74181;BME280;62544;50.826;14.354;2023-02-11T11:55:21;100496.00;;;4.02;84.33
74181;BME280;62544;50.826;14.354;2023-02-11T11:59:27;100493.48;;;4.15;83.59
74181;BME280;62544;50.826;14.354;2023-02-11T12:03:55;100492.08;;;4.29;83.21
74181;BME280;62544;50.826;14.354;2023-02-11T12:08:02;100491.69;;;4.40;82.20
74181;BME280;62544;50.826;14.354;2023-02-11T12:16:47;100499.56;;;4.29;84.89
74181;BME280;62544;50.826;14.354;2023-02-11T12:20:52;100501.26;;;4.16;86.64
74181;BME280;62544;50.826;14.354;2023-02-11T12:25:21;100501.56;;;4.12;85.94
74181;BME280;62544;50.826;14.354;2023-02-11T12:42:21;100497.19;;;4.48;84.52
74181;BME280;62544;50.826;14.354;2023-02-11T12:46:35;100497.01;;;4.52;84.83
74181;BME280;62544;50.826;14.354;2023-02-11T12:55:00;100493.53;;;4.58;84.47
74181;BME280;62544;50.826;14.354;2023-02-11T12:59:14;100490.39;;;4.62;84.61
74181;BME280;62544;50.826;14.354;2023-02-11T13:03:29;100486.78;;;4.66;84.29
74181;BME280;62544;50.826;14.354;2023-02-11T13:07:44;100482.89;;;4.70;83.99
74181;BME280;62544;50.826;14.354;2023-02-11T13:12:01;100480.94;;;4.70;83.64
74181;BME280;62544;50.826;14.354;2023-02-11T13:16:18;100478.43;;;4.69;84.04
74181;BME280;62544;50.826;14.354;2023-02-11T13:20:50;100475.45;;;4.64;84.88
74181;BME280;62544;50.826;14.354;2023-02-11T13:24:58;100473.26;;;4.61;85.14
74181;BME280;62544;50.826;14.354;2023-02-11T13:29:21;100471.33;;;4.59;84.67
74181;BME280;62544;50.826;14.354;2023-02-11T13:33:29;100470.49;;;4.58;84.75
74181;BME280;62544;50.826;14.354;2023-02-11T13:37:37;100470.11;;;4.56;84.85
74181;BME280;62544;50.826;14.354;2023-02-11T13:42:00;100468.26;;;4.54;84.45
74181;BME280;62544;50.826;14.354;2023-02-11T13:46:11;100467.21;;;4.51;84.86
74181;BME280;62544;50.826;14.354;2023-02-11T13:50:24;100465.51;;;4.48;85.13
74181;BME280;62544;50.826;14.354;2023-02-11T13:54:40;100464.31;;;4.47;84.85
74181;BME280;62544;50.826;14.354;2023-02-11T13:58:57;100463.90;;;4.45;85.06
74181;BME280;62544;50.826;14.354;2023-02-11T14:03:20;100462.58;;;4.42;85.87
74181;BME280;62544;50.826;14.354;2023-02-11T14:07:29;100462.08;;;4.41;85.65
74181;BME280;62544;50.826;14.354;2023-02-11T14:11:48;100460.05;;;4.40;85.82
74181;BME280;62544;50.826;14.354;2023-02-11T14:20:35;100459.68;;;4.30;86.87
74181;BME280;62544;50.826;14.354;2023-02-11T14:37:26;100465.06;;;4.12;87.97
74181;BME280;62544;50.826;14.354;2023-02-11T14:41:40;100465.00;;;4.02;89.84
74181;BME280;62544;50.826;14.354;2023-02-11T14:45:53;100464.72;;;3.96;94.03
74181;BME280;62544;50.826;14.354;2023-02-11T14:50:13;100466.36;;;3.96;91.82
74181;BME280;62544;50.826;14.354;2023-02-11T14:54:25;100467.13;;;4.01;93.69
74181;BME280;62544;50.826;14.354;2023-02-11T14:58:44;100468.09;;;4.11;91.54
74181;BME280;62544;50.826;14.354;2023-02-11T15:02:56;100468.21;;;4.25;93.66
74181;BME280;62544;50.826;14.354;2023-02-11T15:07:12;100465.16;;;4.43;92.54
74181;BME280;62544;50.826;14.354;2023-02-11T15:11:30;100462.99;;;4.55;94.44
74181;BME280;62544;50.826;14.354;2023-02-11T15:15:44;100461.77;;;4.71;93.68
74181;BME280;62544;50.826;14.354;2023-02-11T15:20:00;100460.66;;;4.86;92.61
74181;BME280;62544;50.826;14.354;2023-02-11T15:24:26;100459.45;;;5.00;92.52
74181;BME280;62544;50.826;14.354;2023-02-11T15:28:33;100459.34;;;5.04;94.40
74181;BME280;62544;50.826;14.354;2023-02-11T15:32:52;100460.88;;;5.06;94.73
74181;BME280;62544;50.826;14.354;2023-02-11T15:37:04;100464.17;;;5.15;92.89
74181;BME280;62544;50.826;14.354;2023-02-11T15:41:33;100465.91;;;5.20;92.92
74181;BME280;62544;50.826;14.354;2023-02-11T15:45:41;100466.99;;;5.24;93.17
74181;BME280;62544;50.826;14.354;2023-02-11T15:49:52;100469.83;;;5.28;92.71
74181;BME280;62544;50.826;14.354;2023-02-11T15:54:18;100472.31;;;5.38;91.97
74181;BME280;62544;50.826;14.354;2023-02-11T15:58:24;100472.35;;;5.49;91.29
74181;BME280;62544;50.826;14.354;2023-02-11T16:02:43;100474.75;;;5.56;90.88
74181;BME280;62544;50.826;14.354;2023-02-11T16:06:56;100475.90;;;5.60;90.68
74181;BME280;62544;50.826;14.354;2023-02-11T16:11:22;100473.39;;;5.54;94.43
74181;BME280;62544;50.826;14.354;2023-02-11T16:15:41;100471.33;;;5.43;95.95
74181;BME280;62544;50.826;14.354;2023-02-11T16:19:45;100472.47;;;5.37;95.87
74181;BME280;62544;50.826;14.354;2023-02-11T16:24:00;100474.94;;;5.32;96.06
74181;BME280;62544;50.826;14.354;2023-02-11T16:28:16;100475.73;;;5.31;94.89
74181;BME280;62544;50.826;14.354;2023-02-11T16:32:35;100477.29;;;5.31;95.68
74181;BME280;62544;50.826;14.354;2023-02-11T16:36:48;100480.80;;;5.33;94.81
74181;BME280;62544;50.826;14.354;2023-02-11T16:41:04;100483.84;;;5.39;93.21
74181;BME280;62544;50.826;14.354;2023-02-11T16:45:20;100487.93;;;5.45;93.12
74181;BME280;62544;50.826;14.354;2023-02-11T16:49:36;100492.67;;;5.48;93.68
74181;BME280;62544;50.826;14.354;2023-02-11T16:53:52;100498.94;;;5.53;92.40
74181;BME280;62544;50.826;14.354;2023-02-11T16:58:08;100503.30;;;5.53;92.69
74181;BME280;62544;50.826;14.354;2023-02-11T17:02:25;100507.22;;;5.55;92.13
74181;BME280;62544;50.826;14.354;2023-02-11T17:06:40;100511.17;;;5.54;93.59
74181;BME280;62544;50.826;14.354;2023-02-11T17:10:56;100515.67;;;5.53;93.16
74181;BME280;62544;50.826;14.354;2023-02-11T17:15:12;100519.58;;;5.50;94.18
74181;BME280;62544;50.826;14.354;2023-02-11T17:19:28;100522.52;;;5.53;92.14
74181;BME280;62544;50.826;14.354;2023-02-11T17:23:44;100528.65;;;5.54;91.70
74181;BME280;62544;50.826;14.354;2023-02-11T17:28:00;100534.30;;;5.53;91.99
74181;BME280;62544;50.826;14.354;2023-02-11T17:32:16;100537.67;;;5.48;94.66
74181;BME280;62544;50.826;14.354;2023-02-11T17:36:32;100541.96;;;5.48;92.81
74181;BME280;62544;50.826;14.354;2023-02-11T17:40:55;100545.90;;;5.48;91.81
74181;BME280;62544;50.826;14.354;2023-02-11T17:45:04;100549.66;;;5.44;91.74
74181;BME280;62544;50.826;14.354;2023-02-11T17:49:20;100551.42;;;5.42;91.64
74181;BME280;62544;50.826;14.354;2023-02-11T17:53:36;100553.19;;;5.41;91.54
74181;BME280;62544;50.826;14.354;2023-02-11T17:57:52;100555.72;;;5.30;93.26
74181;BME280;62544;50.826;14.354;2023-02-11T18:02:09;100560.97;;;5.21;92.91
74181;BME280;62544;50.826;14.354;2023-02-11T18:06:24;100564.70;;;5.13;93.27
74181;BME280;62544;50.826;14.354;2023-02-11T18:10:40;100566.71;;;5.10;92.69
74181;BME280;62544;50.826;14.354;2023-02-11T18:14:56;100568.92;;;5.05;92.30
74181;BME280;62544;50.826;14.354;2023-02-11T18:19:12;100571.83;;;5.02;92.46
74181;BME280;62544;50.826;14.354;2023-02-11T18:23:28;100574.52;;;5.02;94.88
74181;BME280;62544;50.826;14.354;2023-02-11T18:27:44;100576.82;;;5.05;94.00
74181;BME280;62544;50.826;14.354;2023-02-11T18:32:00;100579.64;;;5.10;93.56
74181;BME280;62544;50.826;14.354;2023-02-11T18:36:16;100582.83;;;5.14;92.34
74181;BME280;62544;50.826;14.354;2023-02-11T18:40:32;100587.98;;;5.16;93.13
74181;BME280;62544;50.826;14.354;2023-02-11T18:44:48;100591.11;;;5.15;93.43
74181;BME280;62544;50.826;14.354;2023-02-11T18:49:04;100595.56;;;5.15;92.77
74181;BME280;62544;50.826;14.354;2023-02-11T18:53:20;100599.52;;;5.16;92.72
74181;BME280;62544;50.826;14.354;2023-02-11T18:57:36;100603.27;;;5.18;93.12
74181;BME280;62544;50.826;14.354;2023-02-11T19:01:52;100606.65;;;5.18;93.14
74181;BME280;62544;50.826;14.354;2023-02-11T19:06:12;100613.21;;;5.21;92.42
74181;BME280;62544;50.826;14.354;2023-02-11T19:10:24;100619.67;;;5.22;92.85
74181;BME280;62544;50.826;14.354;2023-02-11T19:14:40;100624.59;;;5.17;94.39
74181;BME280;62544;50.826;14.354;2023-02-11T19:18:56;100629.72;;;5.18;94.27
74181;BME280;62544;50.826;14.354;2023-02-11T19:23:12;100636.30;;;5.18;93.53
74181;BME280;62544;50.826;14.354;2023-02-11T19:27:28;100639.92;;;5.14;96.61
74181;BME280;62544;50.826;14.354;2023-02-11T19:31:44;100643.12;;;5.13;94.89
74181;BME280;62544;50.826;14.354;2023-02-11T19:36:04;100646.55;;;5.15;95.09
74181;BME280;62544;50.826;14.354;2023-02-11T19:40:16;100653.17;;;5.22;93.31
74181;BME280;62544;50.826;14.354;2023-02-11T19:44:32;100657.95;;;5.22;95.18
74181;BME280;62544;50.826;14.354;2023-02-11T19:48:48;100660.58;;;5.22;98.94
74181;BME280;62544;50.826;14.354;2023-02-11T19:53:04;100664.68;;;5.27;97.81
74181;BME280;62544;50.826;14.354;2023-02-11T19:57:23;100669.65;;;5.37;95.67
74181;BME280;62544;50.826;14.354;2023-02-11T20:01:36;100673.46;;;5.38;97.73
74181;BME280;62544;50.826;14.354;2023-02-11T20:05:52;100675.92;;;5.37;98.47
74181;BME280;62544;50.826;14.354;2023-02-11T20:10:08;100674.90;;;5.36;98.47
74181;BME280;62544;50.826;14.354;2023-02-11T20:14:24;100674.19;;;5.34;99.29
74181;BME280;62544;50.826;14.354;2023-02-11T20:18:40;100673.36;;;5.34;98.83
74181;BME280;62544;50.826;14.354;2023-02-11T20:22:56;100672.86;;;5.33;99.16
74181;BME280;62544;50.826;14.354;2023-02-11T20:27:12;100672.44;;;5.33;99.09
74181;BME280;62544;50.826;14.354;2023-02-11T20:31:29;100672.86;;;5.33;99.03
74181;BME280;62544;50.826;14.354;2023-02-11T20:35:44;100672.94;;;5.32;99.62
74181;BME280;62544;50.826;14.354;2023-02-11T20:40:00;100674.78;;;5.30;100.00
74181;BME280;62544;50.826;14.354;2023-02-11T20:44:16;100678.50;;;5.31;99.83
74181;BME280;62544;50.826;14.354;2023-02-11T20:48:32;100679.57;;;5.31;99.48
74181;BME280;62544;50.826;14.354;2023-02-11T20:52:48;100680.84;;;5.32;99.08
74181;BME280;62544;50.826;14.354;2023-02-11T20:57:04;100681.56;;;5.36;98.28
74181;BME280;62544;50.826;14.354;2023-02-11T21:01:21;100680.31;;;5.43;96.71
74181;BME280;62544;50.826;14.354;2023-02-11T21:05:36;100680.31;;;5.42;98.68
74181;BME280;62544;50.826;14.354;2023-02-11T21:09:52;100679.32;;;5.42;98.29
74181;BME280;62544;50.826;14.354;2023-02-11T21:14:08;100681.78;;;5.39;99.44
74181;BME280;62544;50.826;14.354;2023-02-11T21:18:24;100686.31;;;5.38;98.67
74181;BME280;62544;50.826;14.354;2023-02-11T21:22:40;100688.67;;;5.41;97.98
74181;BME280;62544;50.826;14.354;2023-02-11T21:26:56;100689.59;;;5.41;98.66
74181;BME280;62544;50.826;14.354;2023-02-11T21:31:19;100694.59;;;5.39;99.36
74181;BME280;62544;50.826;14.354;2023-02-11T21:35:30;100699.34;;;5.38;99.17
74181;BME280;62544;50.826;14.354;2023-02-11T21:39:44;100707.81;;;5.37;99.32
74181;BME280;62544;50.826;14.354;2023-02-11T21:44:00;100715.26;;;5.35;99.56
74181;BME280;62544;50.826;14.354;2023-02-11T21:48:16;100721.67;;;5.39;98.47
74181;BME280;62544;50.826;14.354;2023-02-11T21:52:32;100723.27;;;5.44;97.37
74181;BME280;62544;50.826;14.354;2023-02-11T21:56:48;100725.02;;;5.41;99.22
74181;BME280;62544;50.826;14.354;2023-02-11T22:01:13;100727.40;;;5.41;98.51
74181;BME280;62544;50.826;14.354;2023-02-11T22:05:20;100731.01;;;5.44;97.94
74181;BME280;62544;50.826;14.354;2023-02-11T22:09:36;100733.98;;;5.47;97.44
74181;BME280;62544;50.826;14.354;2023-02-11T22:13:55;100736.39;;;5.52;97.02
74181;BME280;62544;50.826;14.354;2023-02-11T22:18:08;100739.87;;;5.53;97.11
74181;BME280;62544;50.826;14.354;2023-02-11T22:22:24;100742.22;;;5.56;97.14
74181;BME280;62544;50.826;14.354;2023-02-11T22:26:40;100746.77;;;5.56;97.63
74181;BME280;62544;50.826;14.354;2023-02-11T22:30:56;100750.67;;;5.56;97.34
74181;BME280;62544;50.826;14.354;2023-02-11T22:35:11;100754.12;;;5.61;96.43
74181;BME280;62544;50.826;14.354;2023-02-11T22:39:28;100759.77;;;5.63;96.83
74181;BME280;62544;50.826;14.354;2023-02-11T22:43:44;100764.42;;;5.64;97.36
74181;BME280;62544;50.826;14.354;2023-02-11T22:47:59;100768.78;;;5.68;96.42
74181;BME280;62544;50.826;14.354;2023-02-11T22:52:15;100772.27;;;5.65;98.89
74181;BME280;62544;50.826;14.354;2023-02-11T22:56:32;100776.49;;;5.59;100.00
74181;BME280;62544;50.826;14.354;2023-02-11T23:00:47;100781.17;;;5.54;100.00
74181;BME280;62544;50.826;14.354;2023-02-11T23:05:04;100787.88;;;5.54;99.59
74181;BME280;62544;50.826;14.354;2023-02-11T23:09:19;100792.36;;;5.60;97.82
74181;BME280;62544;50.826;14.354;2023-02-11T23:13:36;100797.52;;;5.58;99.03
74181;BME280;62544;50.826;14.354;2023-02-11T23:17:52;100802.31;;;5.63;98.01
74181;BME280;62544;50.826;14.354;2023-02-11T23:22:07;100805.35;;;5.70;96.93
74181;BME280;62544;50.826;14.354;2023-02-11T23:26:24;100809.05;;;5.77;96.21
74181;BME280;62544;50.826;14.354;2023-02-11T23:30:40;100812.00;;;5.80;96.93
74181;BME280;62544;50.826;14.354;2023-02-11T23:34:56;100815.35;;;5.83;96.55
74181;BME280;62544;50.826;14.354;2023-02-11T23:39:13;100818.52;;;5.84;97.05
74181;BME280;62544;50.826;14.354;2023-02-11T23:43:28;100819.59;;;5.84;96.74
74181;BME280;62544;50.826;14.354;2023-02-11T23:47:43;100820.17;;;5.80;99.00